Time;durP1;ratioP1;P1;durP2;ratioP2;P2;SDS_P1;SDS_P2;PMS_P1;PMS_P2;Temp;Humidity;BMP_temperature;BMP_pressure;BME280_temperature;BME280_humidity;BME280_pressure;Samples;Min_cycle;Max_cycle;Signal;HPM_P1;HPM_P2
2022/06/12 00:01:32;;;;;;;5.33;4.35;;;;;;;18.46;54.86;101383.34;1650601;86;21006;-84
2022/06/12 00:04:01;;;;;;;6.05;4.55;;;;;;;18.47;54.91;101380.66;1667006;84;21510;-84
2022/06/12 00:06:30;;;;;;;6.45;4.60;;;;;;;18.50;54.99;101387.09;1657344;86;21042;-84
2022/06/12 00:09:02;;;;;;;5.58;4.40;;;;;;;18.53;55.03;101389.61;1666813;86;28223;-84
2022/06/12 00:11:35;;;;;;;5.58;4.22;;;;;;;18.56;55.11;101386.48;1676334;84;21034;-84
2022/06/12 00:14:05;;;;;;;9.40;4.70;;;;;;;18.59;55.17;101388.98;1695450;84;21066;-84
2022/06/12 00:16:35;;;;;;;4.50;4.03;;;;;;;18.60;55.22;101395.51;1675211;84;20969;-84
2022/06/12 00:19:03;;;;;;;7.17;4.20;;;;;;;18.65;55.27;101390.95;1664896;84;21062;-84
2022/06/12 00:21:31;;;;;;;5.47;4.47;;;;;;;18.67;55.35;101386.52;1665718;86;20986;-84
2022/06/12 00:24:03;;;;;;;7.97;4.08;;;;;;;18.70;55.40;101392.09;1674040;84;21037;-84
2022/06/12 00:26:37;;;;;;;4.90;4.10;;;;;;;18.71;55.43;101388.56;1659477;84;21022;-84
2022/06/12 00:29:10;;;;;;;5.25;3.90;;;;;;;18.73;55.49;101395.42;1641033;84;21027;-84
2022/06/12 00:31:41;;;;;;;6.45;4.20;;;;;;;18.74;55.57;101397.13;1655317;84;21598;-84
2022/06/12 00:34:12;;;;;;;6.17;4.28;;;;;;;18.79;55.64;101397.81;1666170;84;20979;-84
2022/06/12 00:36:39;;;;;;;4.65;3.87;;;;;;;18.81;55.67;101395.99;1645024;84;21138;-84
2022/06/12 00:39:06;;;;;;;4.17;3.77;;;;;;;18.84;55.72;101395.02;1653614;84;21058;-84
2022/06/12 00:41:34;;;;;;;4.83;4.28;;;;;;;18.85;55.72;101392.80;1670932;84;21011;-84
2022/06/12 00:44:05;;;;;;;5.35;4.03;;;;;;;18.84;55.83;101390.64;1682739;84;21058;-84
2022/06/12 00:46:57;;;;;;;5.05;3.98;;;;;;;18.82;55.88;101382.44;1669576;84;20975;-84
2022/06/12 00:49:38;;;;;;;5.85;4.10;;;;;;;18.82;55.89;101383.75;1626908;86;20971;-84
2022/06/12 00:52:20;;;;;;;9.88;4.42;;;;;;;18.80;55.95;101387.73;1656748;85;21097;-84
2022/06/12 00:54:51;;;;;;;3.92;3.52;;;;;;;18.76;56.03;101383.52;1663147;84;21082;-84
2022/06/12 00:57:21;;;;;;;4.87;4.10;;;;;;;18.73;56.07;101384.09;1688705;84;20987;-84
2022/06/12 00:59:59;;;;;;;6.62;4.03;;;;;;;18.68;56.13;101386.06;1655968;86;21075;-84
2022/06/12 01:02:31;;;;;;;5.37;3.92;;;;;;;18.65;56.19;101387.03;1653907;85;21117;-84
2022/06/12 01:07:50;;;;;;;8.93;4.12;;;;;;;18.58;56.34;101382.89;1633679;87;21006;-84
2022/06/12 01:10:19;;;;;;;5.35;3.83;;;;;;;18.53;56.39;101378.27;1635288;87;21074;-84
2022/06/12 01:12:50;;;;;;;4.47;3.80;;;;;;;18.47;56.50;101379.35;1639924;85;21130;-84
2022/06/12 01:15:22;;;;;;;6.33;4.17;;;;;;;18.42;56.54;101383.05;1637631;85;21054;-84
2022/06/12 01:17:51;;;;;;;5.92;4.50;;;;;;;18.37;56.61;101381.05;1595540;88;21060;-84
2022/06/12 01:20:24;;;;;;;4.92;3.80;;;;;;;18.31;56.70;101386.50;1629332;86;21086;-84
2022/06/12 01:23:12;;;;;;;8.63;4.70;;;;;;;18.24;56.73;101380.62;1668777;85;20959;-84
2022/06/12 01:26:10;;;;;;;5.17;4.42;;;;;;;18.16;56.77;101378.77;1670196;85;22139;-84
2022/06/12 01:29:26;;;;;;;5.90;4.20;;;;;;;18.08;56.86;101379.48;1633815;85;432584;-84
2022/06/12 01:32:14;;;;;;;;;;;;;;;18.00;56.96;101375.83;1650715;86;21133;-84
2022/06/12 01:34:49;;;;;;;8.10;5.05;;;;;;;17.93;57.42;101370.86;1651004;86;20183;-84
2022/06/12 01:37:59;;;;;;;8.18;4.45;;;;;;;17.81;57.03;101370.36;1646279;86;20970;-84
2022/06/12 01:40:49;;;;;;;6.10;4.55;;;;;;;17.69;57.15;101372.08;1657834;85;21110;-84
2022/06/12 01:43:25;;;;;;;8.13;4.40;;;;;;;17.62;57.25;101374.50;1626790;86;21160;-84
2022/06/12 01:46:05;;;;;;;4.83;4.33;;;;;;;17.54;57.31;101366.91;1661095;84;21069;-84
2022/06/12 01:48:57;;;;;;;6.15;4.75;;;;;;;17.48;57.38;101368.86;1633914;86;21081;-84
2022/06/12 01:51:56;;;;;;;5.47;4.87;;;;;;;17.40;57.48;101371.72;1670553;85;21023;-84
2022/06/12 01:54:33;;;;;;;4.65;4.25;;;;;;;17.34;57.57;101370.61;1648046;86;21089;-84
2022/06/12 01:57:32;;;;;;;5.50;4.70;;;;;;;17.27;57.65;101369.09;1667907;86;21104;-84
2022/06/12 02:00:10;;;;;;;6.42;4.55;;;;;;;17.19;57.69;101371.09;1666937;84;21043;-84
2022/06/12 02:02:53;;;;;;;6.33;4.20;;;;;;;17.10;57.80;101370.95;1659002;85;20981;-84
2022/06/12 02:05:41;;;;;;;5.40;4.58;;;;;;;17.03;57.85;101377.27;1671705;85;21035;-84
2022/06/12 02:08:19;;;;;;;5.92;4.50;;;;;;;16.95;57.91;101370.56;1636221;86;21183;-84
2022/06/12 02:10:53;;;;;;;5.00;4.58;;;;;;;16.87;58.01;101368.18;1609106;87;21326;-84
2022/06/12 02:13:28;;;;;;;4.72;4.33;;;;;;;16.79;58.08;101365.80;1626114;87;21097;-84
2022/06/12 02:16:22;;;;;;;6.60;4.85;;;;;;;16.71;58.13;101365.61;1619554;86;21077;-84
2022/06/12 02:18:56;;;;;;;6.42;4.05;;;;;;;16.63;58.21;101369.75;1628718;86;21057;-84
2022/06/12 02:21:37;;;;;;;6.12;4.37;;;;;;;16.55;58.28;101362.59;1627826;87;21164;-84
2022/06/12 02:24:21;;;;;;;5.00;4.50;;;;;;;16.48;58.39;101368.88;1646935;86;21399;-84
2022/06/12 02:27:04;;;;;;;5.35;4.85;;;;;;;16.40;58.44;101371.70;1656411;85;21000;-84
2022/06/12 02:29:38;;;;;;;6.47;4.78;;;;;;;16.32;58.57;101372.81;1656472;85;21057;-84
2022/06/12 02:32:19;;;;;;;6.15;4.90;;;;;;;16.26;58.63;101375.14;1667150;85;21021;-84
2022/06/12 02:34:53;;;;;;;5.40;4.87;;;;;;;16.22;58.71;101369.59;1663271;85;21069;-84
2022/06/12 02:37:25;;;;;;;5.30;4.80;;;;;;;16.19;58.76;101380.12;1648076;85;21043;-84
2022/06/12 02:39:57;;;;;;;5.75;4.78;;;;;;;16.12;58.86;101382.03;1671678;85;21067;-84
2022/06/12 02:42:31;;;;;;;5.08;4.58;;;;;;;16.11;58.92;101383.41;1652284;84;21045;-84
2022/06/12 02:45:17;;;;;;;6.25;4.58;;;;;;;16.09;58.97;101381.29;1647261;85;21047;-84
2022/06/12 02:47:47;;;;;;;5.80;4.55;;;;;;;16.03;59.03;101385.37;1649057;85;21110;-84
2022/06/12 02:50:17;;;;;;;6.22;4.22;;;;;;;15.96;59.13;101385.11;1660644;86;21029;-84
2022/06/12 02:53:01;;;;;;;5.62;4.70;;;;;;;15.91;59.25;101384.38;1647845;85;21077;-84
2022/06/12 02:55:36;;;;;;;4.80;4.40;;;;;;;15.88;59.30;101381.40;1633003;84;20993;-84
2022/06/12 02:58:22;;;;;;;5.47;4.97;;;;;;;15.84;59.34;101380.62;1666552;85;21087;-84
2022/06/12 03:01:08;;;;;;;8.15;5.58;;;;;;;15.84;59.38;101384.98;1648875;85;21050;-84
2022/06/12 03:03:46;;;;;;;6.97;4.47;;;;;;;15.79;59.47;101386.40;1659211;84;21058;-84
2022/06/12 03:06:20;;;;;;;7.10;5.05;;;;;;;15.77;59.54;101384.72;1665688;86;21065;-84
2022/06/12 03:08:50;;;;;;;5.65;5.15;;;;;;;15.75;59.58;101383.45;1651077;85;21029;-84
2022/06/12 03:11:25;;;;;;;6.03;5.05;;;;;;;15.73;59.64;101389.16;1666291;86;21158;-84
2022/06/12 03:13:55;;;;;;;7.42;5.08;;;;;;;15.71;59.68;101384.42;1665762;85;21522;-84
2022/06/12 03:16:34;;;;;;;5.80;5.20;;;;;;;15.68;59.75;101388.41;1658335;85;21097;-84
2022/06/12 03:19:12;;;;;;;5.45;4.95;;;;;;;15.66;59.82;101392.81;1663090;84;21062;-84
2022/06/12 03:22:03;;;;;;;5.42;4.92;;;;;;;15.66;59.88;101394.11;1670872;84;21093;-84
2022/06/12 03:25:04;;;;;;;6.00;5.35;;;;;;;15.67;59.99;101396.27;1666809;85;21026;-83
2022/06/12 03:27:53;;;;;;;9.85;4.97;;;;;;;15.65;60.03;101392.84;1619384;88;21649;-83
2022/06/12 03:30:37;;;;;;;5.45;4.90;;;;;;;15.66;60.10;101390.65;1667361;85;21037;-84
2022/06/12 03:33:42;;;;;;;7.35;5.35;;;;;;;15.66;60.16;101393.25;1662476;85;21459;-83
2022/06/12 03:36:15;;;;;;;6.37;5.70;;;;;;;15.68;60.21;101393.63;1661094;85;21085;-84
2022/06/12 03:39:02;;;;;;;6.45;5.95;;;;;;;15.69;60.28;101390.13;1639617;86;21069;-84
2022/06/12 03:41:37;;;;;;;5.67;5.20;;;;;;;15.73;60.38;101388.30;1643245;84;21118;-84
2022/06/12 03:44:30;;;;;;;14.20;5.78;;;;;;;15.74;60.50;101396.09;1651734;84;21097;-84
2022/06/12 03:47:14;;;;;;;5.47;5.00;;;;;;;15.77;60.53;101388.19;1642262;85;21608;-84
2022/06/12 03:49:52;;;;;;;6.30;5.70;;;;;;;15.80;60.61;101392.02;1635285;86;21157;-84
2022/06/12 03:52:35;;;;;;;6.45;5.87;;;;;;;15.84;60.66;101391.50;1655502;86;21081;-84
2022/06/12 03:55:15;;;;;;;6.08;5.58;;;;;;;15.85;60.76;101390.16;1660939;84;21109;-84
2022/06/12 03:57:56;;;;;;;7.17;6.60;;;;;;;15.91;60.79;101393.50;1652043;86;21665;-84
2022/06/12 04:00:32;;;;;;;7.67;6.83;;;;;;;15.96;60.88;101395.55;1648064;86;20962;-84
2022/06/12 04:03:15;;;;;;;9.08;7.45;;;;;;;15.99;60.92;101397.62;1667936;85;21042;-84
2022/06/12 04:06:03;;;;;;;8.03;7.40;;;;;;;16.08;61.06;101402.61;1654296;84;21029;-84
2022/06/12 04:08:35;;;;;;;7.40;6.78;;;;;;;16.36;61.22;101341.81;1635907;85;21173;-84
2022/06/12 04:11:11;;;;;;;7.92;7.12;;;;;;;16.48;61.35;101362.36;1637487;86;21088;-84
2022/06/12 04:13:40;;;;;;;7.15;6.53;;;;;;;16.95;61.32;101394.08;1667204;85;21096;-84
2022/06/12 04:16:37;;;;;;;7.72;7.10;;;;;;;17.13;61.29;101402.67;1656763;84;21125;-84
2022/06/12 04:19:09;;;;;;;7.30;6.58;;;;;;;17.22;61.31;101393.20;1670898;84;21036;-84
2022/06/12 04:21:47;;;;;;;7.00;6.30;;;;;;;17.32;61.35;101392.47;1674081;85;21118;-84
2022/06/12 04:24:27;;;;;;;8.00;7.20;;;;;;;17.41;61.38;101394.80;1648404;86;21080;-84
2022/06/12 04:27:26;;;;;;;9.45;7.50;;;;;;;17.52;61.43;101394.86;1657210;86;21038;-84
2022/06/12 04:29:57;;;;;;;8.25;7.15;;;;;;;17.63;61.41;101391.05;1653772;85;21089;-84
2022/06/12 04:32:25;;;;;;;9.63;7.60;;;;;;;17.71;61.40;101391.65;1676764;85;21060;-84
2022/06/12 04:34:53;;;;;;;6.78;6.17;;;;;;;17.77;61.45;101390.14;1647274;87;21106;-84
2022/06/12 04:37:24;;;;;;;7.87;6.17;;;;;;;17.83;61.47;101392.09;1657118;85;21073;-84
2022/06/12 04:39:52;;;;;;;6.85;5.97;;;;;;;17.94;61.56;101394.35;1659118;84;21053;-84
2022/06/12 04:42:22;;;;;;;8.05;6.35;;;;;;;18.08;61.60;101395.19;1667180;86;20994;-84
2022/06/12 04:44:50;;;;;;;6.17;5.58;;;;;;;18.20;61.63;101396.05;1672900;85;21028;-84
2022/06/12 04:47:22;;;;;;;7.40;5.90;;;;;;;18.33;61.66;101397.77;1655241;85;21080;-84
2022/06/12 04:49:49;;;;;;;8.65;6.45;;;;;;;18.45;61.70;101399.96;1653078;85;21137;-84
2022/06/12 04:52:16;;;;;;;;;;;;;;;18.60;61.75;101403.79;1642549;87;21656;-84
2022/06/12 04:54:46;;;;;;;7.20;6.45;;;;;;;18.76;62.16;101403.17;1639993;87;20169;-84
2022/06/12 04:57:16;;;;;;;6.40;5.90;;;;;;;18.94;61.80;101404.25;1652431;84;21029;-84
2022/06/12 04:59:44;;;;;;;6.28;5.55;;;;;;;19.23;61.89;101399.65;1644036;86;20977;-84
2022/06/12 05:02:13;;;;;;;6.08;5.45;;;;;;;19.68;62.09;101404.37;1629486;87;21036;-84
2022/06/12 05:04:41;;;;;;;4.95;4.55;;;;;;;20.33;62.11;101409.85;1650906;84;21085;-85
2022/06/12 05:07:10;;;;;;;5.00;4.50;;;;;;;21.01;62.04;101406.35;1660062;84;21050;-85
2022/06/12 05:09:41;;;;;;;6.30;4.00;;;;;;;21.65;61.92;101403.27;1669186;84;21077;-85
2022/06/12 05:12:12;;;;;;;5.10;4.20;;;;;;;22.29;61.76;101403.96;1670428;84;21022;-85
2022/06/12 05:14:40;;;;;;;3.90;3.50;;;;;;;22.94;61.44;101396.92;1667417;84;21102;-85
2022/06/12 05:17:14;;;;;;;4.05;3.72;;;;;;;23.54;61.32;101399.70;1667546;84;21099;-85
2022/06/12 05:19:44;;;;;;;4.00;3.60;;;;;;;24.10;61.10;101398.98;1672709;84;21074;-86
2022/06/12 05:22:12;;;;;;;4.67;3.30;;;;;;;24.60;60.85;101395.05;1651806;85;21017;-85
2022/06/12 05:24:40;;;;;;;5.00;3.80;;;;;;;25.05;60.63;101388.66;1676149;84;21608;-85
2022/06/12 05:27:11;;;;;;;5.10;3.95;;;;;;;25.46;60.53;101391.27;1676841;84;21109;-85
2022/06/12 05:29:40;;;;;;;6.03;3.40;;;;;;;25.90;60.08;101391.44;1676205;84;21431;-86
2022/06/12 05:32:09;;;;;;;4.58;3.40;;;;;;;26.23;60.04;101392.22;1674159;84;21090;-86
2022/06/12 05:34:36;;;;;;;5.60;3.33;;;;;;;26.63;59.75;101398.25;1670302;84;21065;-86
2022/06/12 05:37:11;;;;;;;4.15;3.40;;;;;;;26.94;59.43;101405.72;1677299;84;20971;-87
2022/06/12 05:39:38;;;;;;;5.03;4.00;;;;;;;27.22;59.17;101403.72;1669311;84;21076;-87
2022/06/12 05:42:06;;;;;;;3.37;3.00;;;;;;;27.51;58.67;101407.73;1652053;84;21013;-88
2022/06/12 05:44:33;;;;;;;6.87;2.98;;;;;;;27.63;58.67;101400.18;1666218;84;21041;-86
2022/06/12 05:47:00;;;;;;;4.15;3.00;;;;;;;27.95;58.36;101403.06;1656208;84;21109;-87
2022/06/12 05:49:29;;;;;;;3.70;2.62;;;;;;;28.19;57.86;101400.30;1667534;84;26630;-87
2022/06/12 05:51:59;;;;;;;4.35;2.90;;;;;;;28.38;57.63;101406.40;1659271;84;21149;-87
2022/06/12 05:54:25;;;;;;;5.20;2.83;;;;;;;28.68;57.36;101407.94;1666831;84;21033;-87
2022/06/12 05:56:52;;;;;;;4.50;2.55;;;;;;;28.95;57.10;101406.74;1657784;85;21101;-87
2022/06/12 05:59:18;;;;;;;5.08;2.60;;;;;;;29.28;56.71;101407.96;1659173;84;21014;-87
2022/06/12 06:01:45;;;;;;;3.25;2.30;;;;;;;29.53;56.32;101408.16;1664961;85;21072;-87
2022/06/12 06:04:11;;;;;;;4.10;2.47;;;;;;;29.81;55.93;101409.81;1675295;84;21132;-87
2022/06/12 06:06:45;;;;;;;3.87;2.47;;;;;;;30.04;55.25;101405.23;1657789;84;26976;-86
2022/06/12 06:09:12;;;;;;;3.33;2.45;;;;;;;30.17;55.17;101405.84;1654180;84;21050;-87
2022/06/12 06:11:40;;;;;;;4.50;2.30;;;;;;;30.58;54.85;101411.13;1667296;84;21082;-86
2022/06/12 06:14:06;;;;;;;3.77;2.40;;;;;;;30.99;54.35;101410.59;1668047;84;21338;-86
2022/06/12 06:16:36;;;;;;;7.03;2.45;;;;;;;31.16;53.91;101406.45;1659726;84;21126;-86
2022/06/12 06:19:03;;;;;;;3.92;2.27;;;;;;;31.49;53.71;101398.00;1657763;84;21070;-87
2022/06/12 06:21:30;;;;;;;4.12;2.30;;;;;;;31.93;53.25;101405.92;1665320;85;21555;-86
2022/06/12 06:23:56;;;;;;;5.70;2.52;;;;;;;32.16;52.51;101403.76;1650133;84;21078;-86
2022/06/12 06:26:25;;;;;;;4.35;2.65;;;;;;;32.43;51.94;101406.98;1662007;84;21129;-87
2022/06/12 06:28:56;;;;;;;3.70;2.25;;;;;;;32.54;51.25;101409.97;1656496;84;21070;-86
2022/06/12 06:31:22;;;;;;;5.42;2.25;;;;;;;32.53;51.01;101404.27;1659100;84;21619;-86
2022/06/12 06:33:58;;;;;;;6.50;2.50;;;;;;;32.74;50.54;101408.89;1649640;84;21555;-86
2022/06/12 06:36:25;;;;;;;6.37;2.40;;;;;;;32.81;49.68;101401.94;1656842;84;21141;-86
2022/06/12 06:38:54;;;;;;;7.90;2.55;;;;;;;33.08;49.20;101402.91;1664034;84;21106;-86
2022/06/12 06:41:21;;;;;;;4.25;2.30;;;;;;;33.34;48.82;101407.88;1665980;85;21085;-87
2022/06/12 06:46:34;;;;;;;5.50;2.35;;;;;;;33.61;47.15;101409.63;1662323;85;21040;-87
2022/06/12 06:49:01;;;;;;;6.30;2.55;;;;;;;33.57;46.75;101414.11;1662269;84;21133;-87
2022/06/12 06:51:28;;;;;;;4.58;2.45;;;;;;;33.71;46.10;101408.20;1672759;84;21105;-87
2022/06/12 06:53:54;;;;;;;5.17;2.80;;;;;;;33.93;45.49;101410.38;1662213;84;21096;-87
2022/06/12 06:56:21;;;;;;;4.65;2.52;;;;;;;34.05;44.99;101406.44;1665125;85;21137;-87
2022/06/12 06:58:48;;;;;;;5.95;2.20;;;;;;;34.44;44.69;101408.68;1664333;84;21054;-87
2022/06/12 07:01:14;;;;;;;;;;;;;;;34.83;43.96;101408.52;1684028;83;21381;-85
2022/06/12 07:03:40;;;;;;;4.30;2.52;;;;;;;35.11;44.32;101412.28;1688804;83;20202;-85
2022/06/12 07:06:13;;;;;;;6.60;2.47;;;;;;;35.41;43.78;101413.01;1698117;83;21120;-85
2022/06/12 07:08:41;;;;;;;6.80;2.47;;;;;;;35.40;42.98;101408.63;1701302;83;21168;-85
2022/06/12 07:11:08;;;;;;;6.05;2.72;;;;;;;35.35;42.93;101401.60;1693707;83;21126;-85
2022/06/12 07:13:35;;;;;;;3.10;2.20;;;;;;;35.39;42.00;101398.88;1686431;83;21006;-85
2022/06/12 07:16:01;;;;;;;4.58;2.30;;;;;;;35.40;41.46;101403.25;1686494;83;21120;-85
2022/06/12 07:18:27;;;;;;;11.90;2.65;;;;;;;35.22;41.04;101403.91;1697618;83;20982;-85
2022/06/12 07:21:01;;;;;;;6.37;2.67;;;;;;;34.93;40.21;101397.62;1632648;86;21147;-85
2022/06/12 07:23:27;;;;;;;4.70;2.62;;;;;;;34.64;39.82;101395.84;1681290;84;21413;-85
2022/06/12 07:25:59;;;;;;;5.03;2.55;;;;;;;34.44;39.38;101385.85;1658884;85;21040;-84
2022/06/12 07:28:27;;;;;;;5.47;2.72;;;;;;;34.29;39.04;101386.11;1673280;84;21052;-85
2022/06/12 07:30:53;;;;;;;5.10;2.72;;;;;;;34.27;38.64;101386.77;1687947;83;21019;-85
2022/06/12 07:33:21;;;;;;;4.40;2.40;;;;;;;34.07;37.87;101380.78;1693332;83;21462;-85
2022/06/12 07:35:51;;;;;;;4.78;2.37;;;;;;;33.61;37.94;101381.96;1664604;84;21068;-85
2022/06/12 07:38:21;;;;;;;4.58;2.25;;;;;;;33.27;37.67;101378.64;1687482;83;21078;-84
2022/06/12 07:40:54;;;;;;;3.67;2.00;;;;;;;33.08;37.38;101382.81;1687789;84;21117;-84
2022/06/12 07:43:20;;;;;;;7.90;2.77;;;;;;;32.76;36.93;101380.12;1673051;84;21076;-84
2022/06/12 07:45:47;;;;;;;5.75;2.75;;;;;;;32.53;36.79;101379.67;1664441;83;21085;-84
2022/06/12 07:48:13;;;;;;;5.17;2.22;;;;;;;32.39;36.52;101376.14;1682812;83;21101;-84
2022/06/12 07:50:42;;;;;;;3.80;1.87;;;;;;;32.19;36.35;101375.36;1670577;84;21179;-85
2022/06/12 07:53:09;;;;;;;4.45;2.10;;;;;;;32.23;36.38;101374.08;1683846;84;20962;-84
2022/06/12 07:55:36;;;;;;;3.92;2.00;;;;;;;32.37;36.14;101377.27;1706206;83;20916;-84
2022/06/12 07:58:02;;;;;;;;;;;;;;;32.28;35.46;101379.00;1679460;83;21056;-84
2022/06/12 08:00:28;;;;;;;4.55;2.25;;;;;;;32.12;35.98;101372.92;1682909;83;20175;-85
2022/06/12 08:02:55;;;;;;;6.00;2.55;;;;;;;32.09;35.49;101371.03;1698542;83;21582;-85
2022/06/12 08:05:22;;;;;;;;;;;;;;;32.18;35.65;101372.34;1694182;83;21531;-85
2022/06/12 08:07:49;;;;;;;4.45;2.37;;;;;;;32.15;35.58;101369.95;1684846;84;20213;-85
2022/06/12 08:10:17;;;;;;;4.28;2.15;;;;;;;32.19;35.44;101371.84;1697623;84;21478;-84
2022/06/12 08:12:45;;;;;;;5.62;3.65;;;;;;;32.40;35.36;101372.47;1705704;83;21065;-84
2022/06/12 08:15:19;;;;;;;4.47;2.02;;;;;;;32.51;35.21;101370.94;1677262;83;20979;-84
2022/06/12 08:17:46;;;;;;;3.62;1.87;;;;;;;32.65;35.11;101367.42;1697079;84;21099;-85
2022/06/12 08:20:25;;;;;;;;;;;;;;;32.87;35.01;101361.16;1689873;84;21642;-84
2022/06/12 08:23:33;;;;;;;4.95;1.80;;;;;;;33.00;35.05;101361.28;1674145;83;20189;-84
2022/06/12 08:26:16;;;;;;;5.25;2.30;;;;;;;32.93;34.72;101360.20;1674237;84;21147;-84
2022/06/12 08:29:02;;;;;;;4.80;1.95;;;;;;;32.87;34.46;101356.29;1696089;83;21072;-85
2022/06/12 08:31:46;;;;;;;4.28;1.92;;;;;;;32.83;34.21;101358.92;1691252;83;21048;-85
2022/06/12 08:34:22;;;;;;;4.45;1.90;;;;;;;32.58;34.11;101357.30;1693243;83;21103;-85
2022/06/12 08:36:52;;;;;;;6.00;1.60;;;;;;;32.51;33.91;101358.89;1667440;84;20996;-84
2022/06/12 08:39:19;;;;;;;5.72;1.45;;;;;;;32.42;33.74;101350.91;1689848;83;21099;-84
2022/06/12 08:42:08;;;;;;;5.10;2.10;;;;;;;32.39;33.75;101350.70;1698129;83;21083;-84
2022/06/12 08:45:05;;;;;;;3.20;1.87;;;;;;;32.28;33.41;101350.89;1679820;84;21600;-84
2022/06/12 08:48:08;;;;;;;4.42;2.15;;;;;;;32.16;33.39;101353.41;1655390;84;136967;-85
2022/06/12 08:50:40;;;;;;;4.92;1.75;;;;;;;32.13;33.33;101351.86;1652152;85;21128;-86
2022/06/12 08:53:17;;;;;;;3.35;2.10;;;;;;;32.09;33.27;101337.09;1636262;86;21084;-85
2022/06/12 08:56:02;;;;;;;5.22;1.80;;;;;;;31.96;33.16;101339.73;1630083;86;21085;-86
2022/06/12 08:58:51;;;;;;;4.28;2.08;;;;;;;31.85;33.02;101344.27;1664938;85;21108;-85
2022/06/12 09:01:18;;;;;;;1.92;1.50;;;;;;;31.71;33.09;101333.21;1661297;85;20959;-85
2022/06/12 09:03:50;;;;;;;;;;;;;;;31.70;33.03;101331.52;1646850;86;21149;-85
2022/06/12 09:06:25;;;;;;;4.65;1.60;;;;;;;31.68;33.11;101324.14;1646175;85;20243;-85
2022/06/12 09:08:56;;;;;;;8.23;1.77;;;;;;;31.67;32.95;101321.08;1633046;86;21137;-85
2022/06/12 09:11:41;;;;;;;2.58;1.40;;;;;;;31.68;32.79;101324.14;1643122;86;21145;-86
2022/06/12 09:14:35;;;;;;;6.92;2.20;;;;;;;31.50;32.70;101314.14;1647921;85;21129;-85
2022/06/12 09:17:09;;;;;;;5.15;1.67;;;;;;;31.49;32.73;101308.94;1655402;85;21043;-85
2022/06/12 09:20:02;;;;;;;2.15;1.50;;;;;;;31.46;32.69;101310.56;1649966;86;21040;-86
2022/06/12 09:22:57;;;;;;;3.40;1.37;;;;;;;31.48;32.69;101314.77;1650810;85;21108;-85
2022/06/12 09:25:34;;;;;;;2.42;1.35;;;;;;;31.52;32.65;101308.16;1647188;85;21098;-85
2022/06/12 09:28:50;;;;;;;3.52;1.62;;;;;;;31.45;32.52;101312.39;1656651;86;21492;-85
2022/06/12 09:31:37;;;;;;;8.00;2.05;;;;;;;31.24;32.49;101306.35;1654768;85;21139;-85
2022/06/12 09:34:25;;;;;;;3.25;1.60;;;;;;;31.05;32.42;101299.67;1656980;85;21085;-85
2022/06/12 09:37:00;;;;;;;6.00;1.62;;;;;;;30.81;32.44;101294.73;1647483;85;21124;-85
2022/06/12 09:39:42;;;;;;;2.00;1.40;;;;;;;30.70;32.42;101296.19;1643529;85;21152;-85
2022/06/12 09:42:25;;;;;;;2.45;1.45;;;;;;;30.55;32.40;101295.73;1637848;85;21039;-85
2022/06/12 09:45:00;;;;;;;1.77;1.42;;;;;;;30.41;32.32;101296.96;1627089;85;21573;-85
2022/06/12 09:47:41;;;;;;;2.70;1.52;;;;;;;30.27;32.23;101284.84;1644239;85;21115;-85
2022/06/12 09:50:38;;;;;;;3.25;1.77;;;;;;;30.10;32.13;101282.00;1644915;86;21095;-85
2022/06/12 09:53:28;;;;;;;3.30;1.57;;;;;;;29.97;32.19;101278.19;1653760;86;21088;-84
2022/06/12 09:56:20;;;;;;;2.58;1.45;;;;;;;29.91;32.16;101276.05;1658124;85;21055;-85
2022/06/12 09:58:55;;;;;;;3.55;1.50;;;;;;;29.83;32.09;101270.53;1652124;85;21088;-84
2022/06/12 10:01:26;;;;;;;3.10;1.57;;;;;;;29.69;32.11;101271.73;1634915;85;21076;-85
2022/06/12 10:04:16;;;;;;;3.00;1.55;;;;;;;29.58;32.10;101270.50;1653051;85;21151;-85
2022/06/12 10:06:54;;;;;;;2.33;1.35;;;;;;;29.46;32.18;101266.22;1643229;86;21109;-85
2022/06/12 10:09:29;;;;;;;2.50;1.37;;;;;;;29.39;32.24;101260.53;1646937;85;21058;-85
2022/06/12 10:12:08;;;;;;;4.03;1.65;;;;;;;29.35;32.21;101266.24;1650017;85;22724;-85
2022/06/12 10:14:42;;;;;;;3.67;1.40;;;;;;;29.33;32.26;101267.70;1651770;85;21655;-85
2022/06/12 10:17:17;;;;;;;3.12;1.98;;;;;;;29.20;32.14;101263.90;1649550;85;21046;-84
2022/06/12 10:19:52;;;;;;;4.97;2.08;;;;;;;29.06;32.37;101265.56;1652102;85;21007;-84
2022/06/12 10:22:38;;;;;;;1.72;1.37;;;;;;;28.97;32.42;101265.00;1653271;85;21012;-84
2022/06/12 10:25:08;;;;;;;4.03;1.80;;;;;;;28.79;32.44;101267.33;1648192;85;21132;-84
2022/06/12 10:27:46;;;;;;;3.00;1.90;;;;;;;28.57;32.50;101263.43;1651349;85;21000;-84
2022/06/12 10:30:32;;;;;;;3.15;1.87;;;;;;;28.40;32.58;101262.61;1651224;85;21149;-84
2022/06/12 10:33:19;;;;;;;3.72;1.17;;;;;;;28.18;32.71;101260.30;1653193;85;20937;-84
2022/06/12 10:35:56;;;;;;;3.17;2.10;;;;;;;27.96;32.71;101265.17;1652162;85;21536;-84
2022/06/12 10:38:27;;;;;;;4.30;1.55;;;;;;;27.81;32.88;101263.72;1650865;85;21071;-84
2022/06/12 10:41:01;;;;;;;7.45;1.70;;;;;;;27.66;32.95;101263.58;1650543;85;21086;-84
2022/06/12 10:43:38;;;;;;;2.52;1.37;;;;;;;27.52;33.03;101263.31;1648518;85;21060;-86
2022/06/12 10:46:21;;;;;;;2.25;1.50;;;;;;;27.39;33.10;101260.37;1652362;85;21080;-86
2022/06/12 10:49:02;;;;;;;3.30;1.30;;;;;;;27.25;33.22;101254.78;1647832;85;21637;-85
2022/06/12 10:51:41;;;;;;;3.95;1.60;;;;;;;27.13;33.30;101253.89;1653709;85;21165;-86
2022/06/12 10:54:18;;;;;;;3.22;1.40;;;;;;;27.04;33.46;101251.45;1648492;85;21116;-86
2022/06/12 10:56:58;;;;;;;2.87;1.67;;;;;;;27.00;33.59;101254.48;1641428;85;21156;-86
2022/06/12 10:59:46;;;;;;;2.60;1.52;;;;;;;26.96;33.76;101251.69;1628508;85;21573;-86
2022/06/12 11:02:22;;;;;;;;;;;;;;;26.88;33.88;101242.09;1650587;85;21105;-86
2022/06/12 11:05:14;;;;;;;3.33;1.50;;;;;;;26.84;34.25;101244.13;1660493;85;20255;-86
2022/06/12 11:07:58;;;;;;;7.35;1.80;;;;;;;26.86;34.14;101240.87;1656976;85;21549;-86
2022/06/12 11:10:32;;;;;;;3.25;1.50;;;;;;;26.87;34.21;101241.23;1655568;86;21070;-86
2022/06/12 11:13:19;;;;;;;4.92;1.72;;;;;;;26.95;34.24;101235.36;1652507;85;21124;-89
2022/06/12 11:16:26;;;;;;;3.85;2.45;;;;;;;27.05;34.29;101233.71;1673283;84;21117;-89
2022/06/12 11:19:11;;;;;;;2.40;1.65;;;;;;;27.17;34.36;101236.77;1647573;85;21121;-89
2022/06/12 11:22:04;;;;;;;6.50;3.83;;;;;;;27.17;34.39;101234.59;1630884;86;20997;-90
2022/06/12 11:25:13;;;;;;;7.92;2.62;;;;;;;27.15;34.45;101230.73;1632550;87;21112;-90
2022/06/12 11:28:31;;;;;;;3.75;2.50;;;;;;;27.16;34.61;101220.95;1629017;86;21055;-90
2022/06/12 11:31:28;;;;;;;4.35;1.60;;;;;;;27.19;34.79;101219.40;1651524;85;21063;-89
2022/06/12 11:34:24;;;;;;;3.37;1.67;;;;;;;27.17;34.82;101215.53;1651544;85;21068;-90
2022/06/12 11:37:19;;;;;;;2.35;1.30;;;;;;;27.11;34.96;101220.45;1630451;86;21562;-90
2022/06/12 11:40:00;;;;;;;2.12;1.70;;;;;;;27.00;35.09;101222.63;1646563;85;21069;-90
2022/06/12 11:42:48;;;;;;;4.20;1.80;;;;;;;26.90;35.28;101227.74;1621741;86;21084;-90
2022/06/12 11:45:44;;;;;;;5.03;1.90;;;;;;;26.78;35.43;101234.44;1659840;85;21188;-90
2022/06/12 11:48:28;;;;;;;5.37;2.65;;;;;;;26.59;35.77;101249.53;1648532;85;21063;-90
2022/06/12 11:51:32;;;;;;;2.40;1.50;;;;;;;26.41;36.20;101268.13;1634991;86;21061;-88
2022/06/12 11:54:42;;;;;;;5.30;1.70;;;;;;;26.17;36.58;101277.32;1659086;85;21076;-89
2022/06/12 11:57:41;;;;;;;9.73;2.33;;;;;;;25.82;36.88;101293.06;1657343;85;21088;-91
2022/06/12 12:00:25;;;;;;;7.25;3.77;;;;;;;25.36;37.55;101281.14;1660926;84;21073;-91
2022/06/12 12:03:17;;;;;;;3.67;1.82;;;;;;;25.01;38.24;101289.25;1650177;85;21104;-91
2022/06/12 12:06:10;;;;;;;6.30;2.00;;;;;;;24.72;38.60;101280.55;1656824;85;21136;-89
2022/06/12 12:09:18;;;;;;;5.25;2.22;;;;;;;24.53;39.10;101280.03;1654362;85;21082;-89
2022/06/12 12:12:11;;;;;;;9.63;2.40;;;;;;;24.23;39.56;101260.34;1630308;86;21164;-89
2022/06/12 12:14:42;;;;;;;7.45;2.55;;;;;;;24.23;39.56;101260.34;1652299;85;21525;-89
2022/06/12 12:17:22;;;;;;;5.20;2.40;;;;;;;24.06;40.49;101248.17;1637520;86;21172;-89
2022/06/12 12:20:26;;;;;;;7.10;2.47;;;;;;;23.99;40.90;101238.93;1651657;85;21129;-91